Time;durP1;ratioP1;P1;durP2;ratioP2;P2;SDS_P1;SDS_P2;PMS_P1;PMS_P2;Temp;Humidity;BMP_temperature;BMP_pressure;BME280_temperature;BME280_humidity;BME280_pressure;Samples;Min_cycle;Max_cycle;Signal;HPM_P1;HPM_P2
2023/05/03 00:00:33;;;;;;;5.05;2.88;;;14.70;46.40;;;;;;6180172;23;20537;-77
2023/05/03 00:02:59;;;;;;;6.35;3.30;;;14.60;46.50;;;;;;6179984;23;20021;-77
2023/05/03 00:05:25;;;;;;;5.80;2.80;;;14.60;46.50;;;;;;6153282;23;20574;-77
2023/05/03 00:07:51;;;;;;;6.47;3.28;;;14.60;46.60;;;;;;6180222;23;20565;-77
2023/05/03 00:10:18;;;;;;;8.40;3.10;;;14.60;46.70;;;;;;6154202;23;20012;-76
2023/05/03 00:12:44;;;;;;;7.78;2.80;;;14.60;46.70;;;;;;6129760;23;20368;-76
2023/05/03 00:15:10;;;;;;;6.90;2.80;;;14.60;46.80;;;;;;6180344;23;20116;-77
2023/05/03 00:17:37;;;;;;;6.10;2.97;;;14.50;46.70;;;;;;6180672;23;20220;-77
2023/05/03 00:20:07;;;;;;;5.70;3.10;;;14.60;46.80;;;;;;6180251;23;20047;-77
2023/05/03 00:22:33;;;;;;;7.97;2.85;;;14.50;46.80;;;;;;6129032;23;20017;-76
2023/05/03 00:24:59;;;;;;;7.32;3.42;;;14.50;46.80;;;;;;6180664;23;20038;-76
2023/05/03 00:27:25;;;;;;;4.65;2.50;;;14.50;46.80;;;;;;6180208;23;20017;-76
2023/05/03 00:29:51;;;;;;;7.57;2.88;;;14.50;46.90;;;;;;6178333;23;20047;-76
2023/05/03 00:32:21;;;;;;;7.45;3.45;;;14.40;46.80;;;;;;6153198;23;20013;-77
2023/05/03 00:34:55;;;;;;;5.68;2.90;;;14.40;46.90;;;;;;6179358;23;20013;-76
2023/05/03 00:37:22;;;;;;;5.40;3.28;;;14.40;46.90;;;;;;6181325;23;20036;-76
2023/05/03 00:39:48;;;;;;;6.80;3.30;;;14.40;47.00;;;;;;6179675;23;20017;-76
2023/05/03 00:42:14;;;;;;;6.75;2.88;;;14.40;47.00;;;;;;6153650;23;20021;-76
2023/05/03 00:44:40;;;;;;;6.55;3.17;;;14.40;47.00;;;;;;6178022;23;20028;-78
2023/05/03 00:47:07;;;;;;;6.15;3.20;;;14.40;47.00;;;;;;6153097;23;20017;-77
2023/05/03 00:49:33;;;;;;;7.32;3.15;;;14.40;47.10;;;;;;6180105;23;20071;-77
2023/05/03 00:52:00;;;;;;;6.13;3.15;;;14.30;47.00;;;;;;6181204;23;20024;-77
2023/05/03 00:54:27;;;;;;;9.52;2.45;;;14.30;47.10;;;;;;6179612;23;20116;-77
2023/05/03 00:56:55;;;;;;;6.50;3.00;;;14.30;47.20;;;;;;6153597;23;20053;-80
2023/05/03 00:59:21;;;;;;;4.57;3.05;;;14.30;47.10;;;;;;6152000;23;20108;-80
2023/05/03 01:01:51;;;;;;;4.20;3.00;;;14.30;47.10;;;;;;6179037;23;20048;-78
2023/05/03 01:04:19;;;;;;;5.72;2.80;;;14.30;47.20;;;;;;6154020;23;20121;-81
2023/05/03 01:07:03;;;;;;;7.40;2.83;;;14.30;47.20;;;;;;6128790;23;20028;-81
2023/05/03 01:09:41;;;;;;;4.50;2.72;;;14.20;47.20;;;;;;6128466;23;20013;-80
2023/05/03 01:12:33;;;;;;;6.65;2.55;;;14.30;47.30;;;;;;6153404;23;20468;-81
2023/05/03 01:15:12;;;;;;;4.50;2.90;;;14.20;47.30;;;;;;6179349;23;20036;-82
2023/05/03 01:17:45;;;;;;;3.92;2.70;;;14.20;47.40;;;;;;6178310;23;20043;-83
2023/05/03 01:20:13;;;;;;;4.70;2.40;;;14.20;47.40;;;;;;6153372;23;20036;-84
2023/05/03 01:22:57;;;;;;;6.18;2.85;;;14.20;47.50;;;;;;6179388;23;20013;-82
2023/05/03 01:25:24;;;;;;;6.82;3.28;;;14.20;47.50;;;;;;6152821;23;20017;-83
2023/05/03 01:27:50;;;;;;;4.90;2.50;;;14.20;47.50;;;;;;6177920;23;20546;-84
2023/05/03 01:30:16;;;;;;;7.40;2.85;;;14.20;47.50;;;;;;6128435;23;20033;-83
2023/05/03 01:32:53;;;;;;;6.38;2.80;;;14.20;47.60;;;;;;6152916;23;20079;-79
2023/05/03 01:35:23;;;;;;;6.20;2.65;;;14.10;47.60;;;;;;6153126;23;20392;-78
2023/05/03 01:37:51;;;;;;;4.90;2.72;;;14.10;47.60;;;;;;6152961;23;20051;-79
2023/05/03 01:40:18;;;;;;;5.05;2.90;;;14.10;47.60;;;;;;6153447;23;20009;-80
2023/05/03 01:42:47;;;;;;;5.63;2.60;;;14.10;47.60;;;;;;6178827;23;20025;-79
2023/05/03 01:45:14;;;;;;;7.32;3.17;;;14.10;47.60;;;;;;6152460;23;20024;-79
2023/05/03 01:47:40;;;;;;;6.97;2.70;;;14.10;47.60;;;;;;6152952;23;20013;-79
2023/05/03 01:50:06;;;;;;;5.35;2.88;;;14.10;47.70;;;;;;6152838;23;20058;-80
2023/05/03 01:52:32;;;;;;;5.68;3.25;;;14.10;47.70;;;;;;6153365;23;20096;-77
2023/05/03 01:54:59;;;;;;;5.20;2.58;;;14.10;47.70;;;;;;6153036;23;20065;-79
2023/05/03 01:57:25;;;;;;;6.90;3.08;;;14.10;47.70;;;;;;6178826;23;20429;-81
2023/05/03 01:59:51;;;;;;;6.68;3.13;;;14.10;47.70;;;;;;6152569;23;20021;-80
2023/05/03 02:02:17;;;;;;;9.38;2.97;;;14.10;47.70;;;;;;6127857;23;20368;-83
2023/05/03 02:04:42;;;;;;;10.70;3.08;;;14.10;47.80;;;;;;6152650;23;20496;-81
2023/05/03 02:07:08;;;;;;;4.68;2.50;;;14.10;47.80;;;;;;6179074;23;20017;-83
2023/05/03 02:09:34;;;;;;;5.15;2.60;;;14.10;47.80;;;;;;6152628;23;20045;-84
2023/05/03 02:12:00;;;;;;;7.78;2.80;;;14.10;47.90;;;;;;6152704;23;20017;-83
2023/05/03 02:14:27;;;;;;;4.63;2.10;;;14.10;47.90;;;;;;6151690;23;20028;-82
2023/05/03 02:16:54;;;;;;;5.25;2.33;;;14.10;47.80;;;;;;6152131;23;20021;-81
2023/05/03 02:19:20;;;;;;;4.32;2.40;;;14.10;47.90;;;;;;6179399;23;20013;-82
2023/05/03 02:21:46;;;;;;;5.70;2.38;;;14.10;47.90;;;;;;6152578;23;20378;-81
2023/05/03 02:24:12;;;;;;;6.38;2.47;;;14.10;47.90;;;;;;6152510;23;20017;-80
2023/05/03 02:26:38;;;;;;;6.30;2.50;;;14.10;47.90;;;;;;6152819;23;20096;-80
2023/05/03 02:29:06;;;;;;;4.95;2.22;;;14.10;47.90;;;;;;6178474;23;20255;-84
2023/05/03 02:31:32;;;;;;;4.80;2.40;;;14.10;47.90;;;;;;6152985;23;20095;-83
2023/05/03 02:33:59;;;;;;;7.00;2.30;;;14.10;47.90;;;;;;6179208;23;20427;-86
2023/05/03 02:36:25;;;;;;;4.75;2.60;;;14.10;47.90;;;;;;6152353;23;20106;-83
2023/05/03 02:38:51;;;;;;;3.83;2.13;;;14.10;47.80;;;;;;6152345;23;20017;-84
2023/05/03 02:41:17;;;;;;;5.38;1.92;;;14.10;47.80;;;;;;6152455;23;20059;-84
2023/05/03 02:43:43;;;;;;;6.00;2.20;;;14.20;47.80;;;;;;6152111;23;20020;-84
2023/05/03 02:46:09;;;;;;;3.13;2.10;;;14.20;47.80;;;;;;6179102;23;20032;-83
2023/05/03 02:48:35;;;;;;;3.25;1.90;;;14.20;47.80;;;;;;6178816;23;20021;-81
2023/05/03 02:51:02;;;;;;;5.15;2.08;;;14.20;47.80;;;;;;6178418;23;20024;-81
2023/05/03 02:53:28;;;;;;;6.60;2.40;;;14.20;47.70;;;;;;6152233;23;20029;-82
2023/05/03 02:55:58;;;;;;;2.15;1.70;;;14.20;47.60;;;;;;6152459;23;20430;-83
2023/05/03 02:58:24;;;;;;;5.68;1.90;;;14.30;47.70;;;;;;6179683;23;20063;-81
2023/05/03 03:00:50;;;;;;;5.22;1.77;;;14.30;47.70;;;;;;6152174;23;20020;-84
2023/05/03 03:03:17;;;;;;;4.22;1.77;;;14.30;47.70;;;;;;6152439;23;20039;-83
2023/05/03 03:05:43;;;;;;;2.28;1.77;;;14.30;47.70;;;;;;6178316;23;20376;-79
2023/05/03 03:08:09;;;;;;;3.38;1.40;;;14.30;47.60;;;;;;6154333;23;20100;-83
2023/05/03 03:10:36;;;;;;;5.07;1.48;;;14.30;47.60;;;;;;6154400;23;20015;-82
2023/05/03 03:13:03;;;;;;;2.95;1.77;;;14.30;47.40;;;;;;6158621;23;20346;-81
2023/05/03 03:15:35;;;;;;;4.82;1.92;;;14.40;47.50;;;;;;6177551;23;20064;-80
2023/05/03 03:18:01;;;;;;;2.00;1.27;;;14.40;47.40;;;;;;6166231;23;20025;-81
2023/05/03 03:20:27;;;;;;;1.40;1.30;;;14.40;47.40;;;;;;6173590;23;20072;-78
2023/05/03 03:22:53;;;;;;;2.75;1.48;;;14.40;47.40;;;;;;6188151;23;20052;-85
2023/05/03 03:25:20;;;;;;;1.65;1.13;;;14.40;47.40;;;;;;6155459;23;20400;-81
2023/05/03 03:27:46;;;;;;;2.25;1.50;;;14.40;47.30;;;;;;6154624;23;20092;-83
2023/05/03 03:30:13;;;;;;;3.08;1.50;;;14.40;47.40;;;;;;6153908;23;20127;-82
2023/05/03 03:32:49;;;;;;;2.55;1.20;;;14.40;47.40;;;;;;6154092;23;20017;-82
2023/05/03 03:35:24;;;;;;;1.75;1.25;;;14.40;47.40;;;;;;6153565;23;20503;-82
2023/05/03 03:37:50;;;;;;;6.03;1.50;;;14.40;47.40;;;;;;6179970;23;20017;-83
2023/05/03 03:40:17;;;;;;;2.00;1.48;;;14.40;47.30;;;;;;6155012;23;20052;-81
2023/05/03 03:42:44;;;;;;;3.78;1.60;;;14.50;47.40;;;;;;6153776;23;20558;-79
2023/05/03 03:45:10;;;;;;;3.97;1.65;;;14.40;47.50;;;;;;6179395;23;20028;-79
2023/05/03 03:47:36;;;;;;;1.83;1.40;;;14.40;47.50;;;;;;6152780;23;20028;-76
2023/05/03 03:50:02;;;;;;;2.95;1.65;;;14.40;47.60;;;;;;6128305;23;20460;-77
2023/05/03 03:52:30;;;;;;;1.95;1.30;;;14.40;48.20;;;;;;6128387;23;20019;-77
2023/05/03 03:54:56;;;;;;;3.28;1.33;;;14.50;47.60;;;;;;6127946;23;20021;-76
2023/05/03 03:57:24;;;;;;;1.65;1.35;;;14.50;47.60;;;;;;6152789;23;20017;-76
2023/05/03 03:59:51;;;;;;;2.85;1.58;;;14.50;47.60;;;;;;6127862;23;20095;-77
2023/05/03 04:02:17;;;;;;;2.67;1.40;;;14.50;47.70;;;;;;6152158;23;20051;-76
2023/05/03 04:04:43;;;;;;;5.60;2.00;;;14.50;47.60;;;;;;6152828;23;20478;-76
2023/05/03 04:07:10;;;;;;;2.53;1.40;;;14.50;47.50;;;;;;6152575;23;20012;-79
2023/05/03 04:09:36;;;;;;;3.97;1.50;;;14.50;47.60;;;;;;6153321;23;20021;-79
2023/05/03 04:12:03;;;;;;;4.32;1.40;;;14.50;47.50;;;;;;6153932;23;20013;-78
2023/05/03 04:14:29;;;;;;;2.17;1.35;;;14.60;47.60;;;;;;6153370;23;20021;-78
2023/05/03 04:16:55;;;;;;;1.88;1.33;;;14.50;47.50;;;;;;6180163;23;20045;-80
2023/05/03 04:19:22;;;;;;;1.70;1.30;;;14.50;47.40;;;;;;6153892;23;20032;-81
2023/05/03 04:21:49;;;;;;;3.42;1.80;;;14.50;47.60;;;;;;6154334;23;20025;-82
2023/05/03 04:24:17;;;;;;;3.15;1.55;;;14.50;47.80;;;;;;6127549;23;20017;-80
2023/05/03 04:26:44;;;;;;;2.50;1.30;;;14.50;48.00;;;;;;6127346;23;20029;-81
2023/05/03 04:29:18;;;;;;;2.47;1.40;;;14.50;48.30;;;;;;6152550;23;20017;-78
2023/05/03 04:31:45;;;;;;;3.38;1.45;;;14.50;48.60;;;;;;6127732;23;20016;-80
2023/05/03 04:34:15;;;;;;;4.45;1.67;;;14.50;48.80;;;;;;6152793;23;20017;-80
2023/05/03 04:36:45;;;;;;;2.90;1.67;;;14.50;49.10;;;;;;6152192;23;20017;-81
2023/05/03 04:39:12;;;;;;;2.20;1.48;;;14.50;49.30;;;;;;6151513;23;20283;-85
2023/05/03 04:41:40;;;;;;;2.80;1.90;;;14.50;49.20;;;;;;6151331;23;20028;-79
2023/05/03 04:44:07;;;;;;;2.85;1.52;;;14.50;49.50;;;;;;6151974;23;20017;-80
2023/05/03 04:46:33;;;;;;;3.05;1.38;;;14.50;49.70;;;;;;6152443;23;20064;-76
2023/05/03 04:48:59;;;;;;;2.78;1.50;;;14.50;50.00;;;;;;6153993;23;20064;-77
2023/05/03 04:51:27;;;;;;;2.55;1.50;;;14.50;50.20;;;;;;6152814;23;20026;-78
2023/05/03 04:53:53;;;;;;;1.92;1.40;;;14.50;50.70;;;;;;6177887;23;20476;-78
2023/05/03 04:56:25;;;;;;;3.28;1.63;;;14.50;50.60;;;;;;6152909;23;20017;-76
2023/05/03 04:58:52;;;;;;;4.13;1.73;;;14.50;51.00;;;;;;6153196;23;20095;-78
2023/05/03 05:01:25;;;;;;;6.88;1.75;;;14.40;51.30;;;;;;6153022;23;20457;-79
2023/05/03 05:03:53;;;;;;;2.80;1.40;;;14.50;51.90;;;;;;6152789;23;20075;-78
2023/05/03 05:06:22;;;;;;;4.43;1.83;;;14.50;51.80;;;;;;6152732;23;20025;-79
2023/05/03 05:08:49;;;;;;;2.15;1.70;;;14.50;52.00;;;;;;6152906;23;20021;-76
2023/05/03 05:11:15;;;;;;;2.70;1.63;;;14.50;52.40;;;;;;6153035;23;20125;-78
2023/05/03 05:13:42;;;;;;;4.10;1.58;;;14.50;52.40;;;;;;6152811;23;20150;-80
2023/05/03 05:16:08;;;;;;;3.60;1.40;;;14.50;52.40;;;;;;6153106;23;20076;-79
2023/05/03 05:18:35;;;;;;;3.78;1.40;;;14.50;52.60;;;;;;6152810;23;20021;-80
2023/05/03 05:21:03;;;;;;;3.17;1.67;;;14.50;52.50;;;;;;6153172;23;20346;-80
2023/05/03 05:23:31;;;;;;;4.30;1.95;;;14.60;52.50;;;;;;6152560;23;20020;-78
2023/05/03 05:25:59;;;;;;;2.63;1.60;;;14.60;52.60;;;;;;6180035;23;20075;-80
2023/05/03 05:28:28;;;;;;;4.20;1.88;;;14.70;53.10;;;;;;6152956;23;20106;-78
2023/05/03 05:30:54;;;;;;;3.08;1.50;;;14.80;52.30;;;;;;6127826;23;20021;-80
2023/05/03 05:33:21;;;;;;;5.05;1.85;;;14.80;52.30;;;;;;6152423;23;20472;-77
2023/05/03 05:35:48;;;;;;;4.97;1.73;;;14.90;52.20;;;;;;6152141;23;20031;-78
2023/05/03 05:38:16;;;;;;;3.75;1.70;;;15.00;52.20;;;;;;6128501;23;20009;-81
2023/05/03 05:40:44;;;;;;;2.72;1.70;;;15.00;52.00;;;;;;6152666;23;20415;-83
2023/05/03 05:43:10;;;;;;;4.53;1.88;;;15.10;52.00;;;;;;6153161;23;20009;-85
2023/05/03 05:45:38;;;;;;;3.00;1.85;;;15.10;51.90;;;;;;6153064;23;20021;-87
2023/05/03 05:48:05;;;;;;;3.60;1.90;;;15.10;51.90;;;;;;6128906;23;20017;-87
2023/05/03 05:50:32;;;;;;;3.15;1.77;;;15.10;51.90;;;;;;6130222;23;20298;-87
2023/05/03 05:53:02;;;;;;;4.93;2.30;;;15.20;52.00;;;;;;6155072;23;20364;-86
2023/05/03 05:55:33;;;;;;;2.65;1.55;;;15.20;51.80;;;;;;6156113;23;20427;-79
2023/05/03 05:58:00;;;;;;;5.75;2.05;;;15.30;51.90;;;;;;6155530;23;20024;-79
2023/05/03 06:00:34;;;;;;;4.53;2.25;;;15.40;51.90;;;;;;6176748;23;20035;-80
2023/05/03 06:03:00;;;;;;;4.13;1.88;;;15.50;51.80;;;;;;6127719;23;20119;-79
2023/05/03 06:05:26;;;;;;;3.58;1.80;;;15.60;51.70;;;;;;6151979;23;20119;-78
2023/05/03 06:07:52;;;;;;;2.38;1.75;;;15.70;51.50;;;;;;6149143;23;20101;-77
2023/05/03 06:10:18;;;;;;;3.15;2.00;;;15.80;51.40;;;;;;6147471;23;20088;-77
2023/05/03 06:12:50;;;;;;;11.70;5.57;;;15.90;51.40;;;;;;6149067;23;20103;-78
2023/05/03 06:15:20;;;;;;;7.78;4.35;;;15.90;51.30;;;;;;6149054;23;20030;-77
2023/05/03 06:17:46;;;;;;;4.07;3.15;;;16.00;51.30;;;;;;6126098;23;20028;-77
2023/05/03 06:20:12;;;;;;;9.30;4.03;;;16.00;51.30;;;;;;6127242;23;20496;-79
2023/05/03 06:22:39;;;;;;;5.60;2.92;;;16.00;51.20;;;;;;6151763;23;20047;-77
2023/05/03 06:25:09;;;;;;;4.75;2.92;;;16.00;51.10;;;;;;6152386;23;20013;-77
2023/05/03 06:27:37;;;;;;;4.88;2.90;;;16.00;51.10;;;;;;6152001;23;20024;-77
2023/05/03 06:30:05;;;;;;;4.85;3.15;;;16.00;51.10;;;;;;6150966;23;20508;-76
2023/05/03 06:32:31;;;;;;;5.60;2.67;;;16.10;51.10;;;;;;6150739;23;20016;-77
2023/05/03 06:34:58;;;;;;;2.92;2.50;;;16.10;51.00;;;;;;6178387;23;20112;-77
2023/05/03 06:37:25;;;;;;;6.88;3.03;;;16.20;50.90;;;;;;6151164;23;20052;-77
2023/05/03 06:39:51;;;;;;;3.03;2.33;;;16.30;50.80;;;;;;6155116;23;20171;-77
2023/05/03 06:42:18;;;;;;;8.27;2.60;;;16.30;50.60;;;;;;6180658;23;20500;-76
2023/05/03 06:44:45;;;;;;;5.72;2.67;;;16.40;50.50;;;;;;6154436;23;20506;-77
2023/05/03 06:47:12;;;;;;;3.38;2.58;;;16.40;50.30;;;;;;6155132;23;20372;-77
2023/05/03 06:49:38;;;;;;;3.45;2.20;;;16.40;50.40;;;;;;6154440;23;20013;-78
2023/05/03 06:52:05;;;;;;;4.13;2.40;;;16.50;50.30;;;;;;6155204;23;20071;-78
2023/05/03 06:54:32;;;;;;;2.83;1.98;;;16.60;50.20;;;;;;6180145;23;20025;-76
2023/05/03 06:56:58;;;;;;;5.57;2.63;;;16.70;50.10;;;;;;6179339;23;20021;-79
2023/05/03 06:59:24;;;;;;;4.30;2.65;;;16.70;49.90;;;;;;6180504;23;20424;-80
2023/05/03 07:01:50;;;;;;;5.97;2.63;;;16.80;49.70;;;;;;6180496;23;20020;-77
2023/05/03 07:04:16;;;;;;;6.38;2.50;;;16.90;49.60;;;;;;6154581;23;20016;-77
2023/05/03 07:06:42;;;;;;;5.80;2.65;;;17.00;49.50;;;;;;6181067;23;20020;-77
2023/05/03 07:09:08;;;;;;;2.53;2.05;;;17.10;49.30;;;;;;6181043;23;20047;-77
2023/05/03 07:11:36;;;;;;;3.60;2.38;;;17.20;49.20;;;;;;6180812;23;20067;-77
2023/05/03 07:14:01;;;;;;;5.10;2.15;;;17.30;49.10;;;;;;6181392;23;20013;-77
2023/05/03 07:16:28;;;;;;;7.57;2.60;;;17.40;49.00;;;;;;6181161;23;20052;-77
2023/05/03 07:18:54;;;;;;;3.70;2.17;;;17.50;49.00;;;;;;6181072;23;20029;-77
2023/05/03 07:21:20;;;;;;;3.42;2.38;;;17.50;48.80;;;;;;6155052;23;20440;-75
2023/05/03 07:23:46;;;;;;;7.63;2.42;;;17.50;48.80;;;;;;6180282;23;20017;-77
2023/05/03 07:26:12;;;;;;;5.40;2.42;;;17.50;48.80;;;;;;6154657;23;20032;-77
2023/05/03 07:28:38;;;;;;;7.10;2.42;;;17.60;48.90;;;;;;6180770;23;20219;-77
2023/05/03 07:31:04;;;;;;;3.95;2.40;;;17.50;48.90;;;;;;6151962;23;20017;-78
2023/05/03 07:33:33;;;;;;;5.32;2.45;;;17.50;48.90;;;;;;6126607;23;20096;-77
2023/05/03 07:35:59;;;;;;;4.43;2.78;;;17.60;49.00;;;;;;6177810;23;20017;-77
2023/05/03 07:38:25;;;;;;;6.25;2.58;;;17.60;48.90;;;;;;6177782;23;20154;-76
2023/05/03 07:40:51;;;;;;;7.63;2.17;;;17.60;48.90;;;;;;6177426;23;20055;-76
2023/05/03 07:43:19;;;;;;;5.88;2.67;;;17.60;48.80;;;;;;6152245;23;20344;-78
2023/05/03 07:45:45;;;;;;;6.25;2.60;;;17.70;48.80;;;;;;6178150;23;20024;-77
2023/05/03 07:48:10;;;;;;;9.50;2.90;;;17.70;48.80;;;;;;6178254;23;20495;-79
2023/05/03 07:50:36;;;;;;;8.10;2.67;;;17.70;48.80;;;;;;6177829;23;20021;-77
2023/05/03 07:53:02;;;;;;;5.90;2.60;;;17.80;48.90;;;;;;6128603;23;20017;-80
2023/05/03 07:55:30;;;;;;;6.57;2.70;;;17.80;49.00;;;;;;6182937;23;20013;-81
2023/05/03 07:57:58;;;;;;;6.18;2.58;;;17.80;49.00;;;;;;6183024;23;20048;-80
2023/05/03 08:00:25;;;;;;;10.90;2.75;;;17.80;48.90;;;;;;6156163;23;20029;-79
2023/05/03 08:02:51;;;;;;;7.18;2.67;;;17.90;49.00;;;;;;6182694;23;20025;-79
2023/05/03 08:05:17;;;;;;;5.20;2.83;;;17.90;49.00;;;;;;6182152;23;20028;-78
2023/05/03 08:07:43;;;;;;;7.00;3.08;;;17.90;49.10;;;;;;6182669;23;20024;-79
2023/05/03 08:10:09;;;;;;;4.65;2.50;;;17.90;49.00;;;;;;6183834;23;20009;-78
2023/05/03 08:12:35;;;;;;;7.43;2.60;;;17.90;49.00;;;;;;6182168;23;20071;-76
2023/05/03 08:15:05;;;;;;;5.13;2.40;;;17.90;49.00;;;;;;6131578;23;20033;-77
2023/05/03 08:17:38;;;;;;;10.45;2.58;;;18.00;49.00;;;;;;6182644;23;20027;-77
2023/05/03 08:20:06;;;;;;;6.85;2.50;;;18.00;49.00;;;;;;6155441;23;20017;-77
2023/05/03 08:22:32;;;;;;;5.40;2.90;;;18.00;49.00;;;;;;6183034;23;20353;-78
2023/05/03 08:25:00;;;;;;;5.68;2.97;;;18.00;49.00;;;;;;6182485;23;20017;-78
2023/05/03 08:27:27;;;;;;;9.32;3.30;;;18.00;49.10;;;;;;6155844;23;20029;-78
2023/05/03 08:29:53;;;;;;;8.23;2.80;;;18.00;49.00;;;;;;6181401;23;20412;-79
2023/05/03 08:32:21;;;;;;;7.40;2.88;;;18.00;49.20;;;;;;6130766;23;20017;-78
2023/05/03 08:34:47;;;;;;;7.15;3.03;;;18.00;49.20;;;;;;6181817;23;20016;-76
2023/05/03 08:37:13;;;;;;;6.28;2.75;;;18.00;49.30;;;;;;6156974;23;20040;-76
2023/05/03 08:39:39;;;;;;;13.88;2.95;;;18.00;49.30;;;;;;6181622;23;20515;-76
2023/05/03 08:42:07;;;;;;;9.20;3.10;;;18.00;49.40;;;;;;6180578;23;20017;-76
2023/05/03 08:44:39;;;;;;;6.55;3.00;;;18.00;49.40;;;;;;6182367;23;20369;-76
2023/05/03 08:47:06;;;;;;;12.23;2.75;;;18.00;49.40;;;;;;6181846;23;20021;-81
2023/05/03 08:49:34;;;;;;;7.18;2.55;;;17.90;49.40;;;;;;6179914;23;20067;-79
2023/05/03 08:52:01;;;;;;;5.90;2.40;;;18.00;49.70;;;;;;6179895;23;20108;-79
2023/05/03 08:54:27;;;;;;;5.93;2.80;;;17.90;49.80;;;;;;6153440;23;20091;-79
2023/05/03 08:56:53;;;;;;;7.78;2.92;;;17.90;50.00;;;;;;6179753;23;20360;-78
2023/05/03 08:59:19;;;;;;;4.55;2.70;;;17.90;50.10;;;;;;6179567;23;20017;-78
2023/05/03 09:01:44;;;;;;;6.15;2.70;;;17.90;50.20;;;;;;6178699;23;20073;-79
2023/05/03 09:04:11;;;;;;;6.53;2.67;;;17.90;50.30;;;;;;6179744;23;20465;-78
2023/05/03 09:06:37;;;;;;;5.25;2.80;;;17.90;50.40;;;;;;6152884;23;20025;-81
2023/05/03 09:09:08;;;;;;;6.63;2.83;;;17.90;50.60;;;;;;6179594;23;20025;-79
2023/05/03 09:11:37;;;;;;;10.27;3.05;;;17.90;50.60;;;;;;6179415;23;20112;-79
2023/05/03 09:14:14;;;;;;;5.97;2.70;;;17.90;50.60;;;;;;6179698;23;20322;-77
2023/05/03 09:16:43;;;;;;;6.55;3.00;;;17.90;50.70;;;;;;6179031;23;20021;-78
2023/05/03 09:19:11;;;;;;;8.45;3.22;;;17.90;50.80;;;;;;6179888;23;20017;-78
2023/05/03 09:21:45;;;;;;;7.55;3.65;;;17.90;50.90;;;;;;6179168;23;20558;-80
2023/05/03 09:24:19;;;;;;;9.50;3.30;;;17.80;50.90;;;;;;6178881;23;20551;-80
2023/05/03 09:26:50;;;;;;;9.70;3.88;;;17.80;53.00;;;;;;6179515;23;20025;-80
2023/05/03 09:29:34;;;;;;;5.85;3.22;;;17.80;53.40;;;;;;6179326;23;20380;-78
2023/05/03 09:32:05;;;;;;;5.57;3.10;;;17.70;53.30;;;;;;6153012;23;20084;-79
2023/05/03 09:34:32;;;;;;;7.70;3.50;;;17.60;53.80;;;;;;6153688;23;20013;-79
2023/05/03 09:36:58;;;;;;;5.53;3.15;;;17.50;54.20;;;;;;6180200;23;20368;-80
2023/05/03 09:39:24;;;;;;;6.50;3.28;;;17.40;54.70;;;;;;6153194;23;20451;-79
2023/05/03 09:41:50;;;;;;;4.38;2.70;;;17.30;54.40;;;;;;6153913;23;20021;-80
2023/05/03 09:44:16;;;;;;;7.00;3.28;;;17.30;54.30;;;;;;6130739;23;20088;-80
2023/05/03 09:47:05;;;;;;;5.55;3.00;;;17.30;54.10;;;;;;6153945;23;20017;-81
2023/05/03 09:49:35;;;;;;;5.82;3.20;;;17.20;54.80;;;;;;6181756;23;20005;-80
2023/05/03 09:52:02;;;;;;;8.88;3.30;;;17.10;54.70;;;;;;6180295;23;20020;-81
2023/05/03 09:54:34;;;;;;;7.35;3.35;;;17.10;54.80;;;;;;6152589;23;20147;-81
2023/05/03 09:57:03;;;;;;;8.75;3.28;;;17.00;55.40;;;;;;6181321;23;20301;-81
2023/05/03 09:59:31;;;;;;;12.27;3.80;;;17.00;55.80;;;;;;6179223;23;20497;-79
2023/05/03 10:01:58;;;;;;;7.78;3.03;;;16.90;56.00;;;;;;6178898;23;20013;-82
2023/05/03 10:04:26;;;;;;;7.03;3.38;;;17.00;56.00;;;;;;6179606;23;20040;-84
2023/05/03 10:06:59;;;;;;;5.88;3.40;;;17.00;56.00;;;;;;6128109;23;20476;-86
2023/05/03 10:09:35;;;;;;;8.82;3.58;;;17.00;55.60;;;;;;6179129;23;20364;-82
2023/05/03 10:12:06;;;;;;;4.22;2.38;;;17.00;55.70;;;;;;6152688;23;20021;-85
2023/05/03 10:14:32;;;;;;;10.43;3.13;;;17.00;55.70;;;;;;6179509;23;20120;-83
2023/05/03 10:17:01;;;;;;;5.18;2.80;;;17.00;55.50;;;;;;6178535;23;20040;-83
2023/05/03 10:19:44;;;;;;;5.80;3.10;;;17.10;55.80;;;;;;6179365;23;20013;-84
2023/05/03 10:22:10;;;;;;;5.05;2.80;;;17.10;56.00;;;;;;6177892;23;20025;-82
2023/05/03 10:25:00;;;;;;;6.18;2.92;;;17.10;56.30;;;;;;6177674;23;20388;-84
2023/05/03 10:27:50;;;;;;;5.88;3.20;;;17.10;56.30;;;;;;6178129;23;20028;-84
2023/05/03 10:30:31;;;;;;;5.60;3.08;;;17.10;56.60;;;;;;6177932;23;20017;-81
2023/05/03 10:32:59;;;;;;;5.63;3.78;;;17.10;56.40;;;;;;6178264;23;20114;-81
2023/05/03 10:35:28;;;;;;;7.32;3.17;;;17.10;56.60;;;;;;6178412;23;20028;-84
2023/05/03 10:37:55;;;;;;;5.78;3.40;;;17.10;56.60;;;;;;6178784;23;20045;-82
2023/05/03 10:40:22;;;;;;;9.02;2.78;;;17.10;56.60;;;;;;6153333;23;20407;-83
2023/05/03 10:42:53;;;;;;;5.40;2.95;;;17.10;56.20;;;;;;6178800;23;20021;-83
2023/05/03 10:45:25;;;;;;;5.72;3.60;;;17.20;56.30;;;;;;6178806;23;20314;-83
2023/05/03 10:48:09;;;;;;;10.77;3.45;;;17.20;56.60;;;;;;6151975;23;20017;-83
2023/05/03 10:50:36;;;;;;;9.18;3.33;;;17.20;56.60;;;;;;6178993;23;20019;-83
2023/05/03 10:53:02;;;;;;;6.00;3.63;;;17.20;56.60;;;;;;6180102;23;20099;-83
2023/05/03 10:55:29;;;;;;;5.18;3.00;;;17.20;56.50;;;;;;6179615;23;20020;-83
2023/05/03 10:57:57;;;;;;;6.82;3.00;;;17.20;56.40;;;;;;6179206;23;20464;-84
2023/05/03 11:00:35;;;;;;;9.05;3.42;;;17.20;56.80;;;;;;6179612;23;20025;-84
2023/05/03 11:03:17;;;;;;;8.10;3.40;;;17.20;56.70;;;;;;6179697;23;20017;-83
2023/05/03 11:05:43;;;;;;;7.63;3.47;;;17.30;56.50;;;;;;6179362;23;20025;-83
2023/05/03 11:08:12;;;;;;;5.30;3.67;;;17.20;57.10;;;;;;6129855;23;20017;-80
2023/05/03 11:10:40;;;;;;;6.50;3.67;;;17.20;57.00;;;;;;6180805;23;20016;-83
2023/05/03 11:13:06;;;;;;;4.55;3.17;;;17.20;57.10;;;;;;6180128;23;20139;-84
2023/05/03 11:15:33;;;;;;;6.68;3.30;;;17.20;57.10;;;;;;6188354;23;20039;-82
2023/05/03 11:17:59;;;;;;;8.68;3.70;;;17.20;57.10;;;;;;6133109;23;20021;-82
2023/05/03 11:20:25;;;;;;;8.00;3.90;;;17.20;57.50;;;;;;6186594;23;20080;-81
2023/05/03 11:22:52;;;;;;;4.18;3.33;;;17.20;57.30;;;;;;6164821;23;20017;-83
2023/05/03 11:25:18;;;;;;;4.88;3.33;;;17.20;57.10;;;;;;6184921;23;20051;-86
2023/05/03 11:27:46;;;;;;;5.18;2.90;;;17.20;57.10;;;;;;6181055;23;20028;-83
2023/05/03 11:30:13;;;;;;;7.45;2.85;;;17.20;56.90;;;;;;6183283;23;20247;-88
2023/05/03 11:32:43;;;;;;;7.82;3.10;;;17.20;57.00;;;;;;6184769;23;20021;-87
2023/05/03 11:35:11;;;;;;;4.55;2.67;;;17.20;56.80;;;;;;6187719;23;20017;-82
2023/05/03 11:37:37;;;;;;;8.77;2.92;;;17.20;56.60;;;;;;6171378;23;20009;-82
2023/05/03 11:40:03;;;;;;;4.85;3.47;;;17.30;56.60;;;;;;6133186;23;20059;-83
2023/05/03 11:42:29;;;;;;;6.00;2.80;;;17.30;56.70;;;;;;6181855;23;20468;-83
2023/05/03 11:44:56;;;;;;;7.28;2.72;;;17.20;56.50;;;;;;6182825;23;20021;-84
2023/05/03 11:47:23;;;;;;;4.50;2.72;;;17.20;56.40;;;;;;6157561;23;20059;-81
2023/05/03 11:49:52;;;;;;;4.22;2.97;;;17.30;56.10;;;;;;6132622;23;20017;-85
2023/05/03 11:52:23;;;;;;;6.55;2.95;;;17.40;56.00;;;;;;6157282;23;20024;-84
2023/05/03 11:54:53;;;;;;;8.40;2.83;;;17.40;55.80;;;;;;6154096;23;20225;-82
2023/05/03 11:57:20;;;;;;;9.82;2.72;;;17.40;55.90;;;;;;6180377;23;20079;-85
2023/05/03 11:59:48;;;;;;;6.13;2.90;;;17.40;55.80;;;;;;6155532;23;20436;-82
2023/05/03 12:02:15;;;;;;;5.07;3.10;;;17.40;55.90;;;;;;6181917;23;20017;-89
2023/05/03 12:04:43;;;;;;;11.05;2.83;;;17.40;55.80;;;;;;6141273;23;20017;-90
2023/05/03 12:07:10;;;;;;;7.68;2.65;;;17.40;55.80;;;;;;6183317;23;20472;-88
2023/05/03 12:09:36;;;;;;;4.40;2.50;;;17.40;55.50;;;;;;6183734;23;20036;-88
2023/05/03 12:12:03;;;;;;;5.30;2.70;;;17.50;55.40;;;;;;6182335;23;20017;-85
2023/05/03 12:14:57;;;;;;;3.65;2.42;;;17.50;55.30;;;;;;6157226;23;20020;-85
2023/05/03 12:17:34;;;;;;;4.15;2.30;;;17.40;55.30;;;;;;6182639;23;20040;-86
2023/05/03 12:20:20;;;;;;;3.17;2.30;;;17.40;55.20;;;;;;6183304;23;20128;-85
2023/05/03 12:22:50;;;;;;;;;;;17.50;55.70;;;;;;6183379;23;20005;-85
2023/05/03 12:25:16;;;;;;;3.15;2.35;;;17.50;55.00;;;;;;6182447;23;20237;-82
2023/05/03 12:27:42;;;;;;;6.28;2.13;;;17.50;54.80;;;;;;6183104;23;20453;-81
2023/05/03 12:30:12;;;;;;;4.03;2.80;;;17.50;54.80;;;;;;6131748;23;20039;-86
2023/05/03 12:32:38;;;;;;;4.75;2.55;;;17.50;54.70;;;;;;6184713;23;20025;-91
2023/05/03 12:35:05;;;;;;;4.88;2.60;;;17.50;54.50;;;;;;6183994;23;20476;-84
2023/05/03 12:37:31;;;;;;;5.57;2.92;;;17.60;54.00;;;;;;6182333;23;20451;-84
2023/05/03 12:39:57;;;;;;;9.02;2.92;;;17.50;53.90;;;;;;6182677;23;20020;-84
2023/05/03 12:42:24;;;;;;;4.28;2.50;;;17.50;53.90;;;;;;6182984;23;20036;-81
2023/05/03 12:44:50;;;;;;;6.13;2.90;;;17.50;53.70;;;;;;6182963;23;20027;-84
2023/05/03 12:47:16;;;;;;;4.95;2.92;;;17.50;53.60;;;;;;6181819;23;20021;-85
2023/05/03 12:49:42;;;;;;;7.90;2.45;;;17.60;54.30;;;;;;6182452;23;20048;-84